• Join FlightAware (Why Join?)
  • Login
  • US Flag 
04:49AM EDT


 

Airport Tracker/Info


-or-


 

Live Flight TrackerFlight Track Log ✈ C-FEKH ✈ 23-Jul-2012 ✈ KLGA - CYUL

Flight Track Log - Related Links

Times and Time Zones

All times are in EDT time to prevent confusion due to time zone crossing. See the C-FEKH flight status page for this flight to view local times or setup timezone preferences in your user account.

Time Position Orientation Groundspeed Altitude Reporting Facility
EDT Latitude Longitude Course Direction KTS MPH feet Rate Location/Type
07:06AM 40.9301 -73.7399 193° South  Level FlightAware Approximate
07:07AM 40.7333 -73.8000 37° Northeast 203 234 3,100  Level New York TRACON
07:08AM 40.7833 -73.7500 30° Northeast 255 293 5,400 2,940 Climbing New York TRACON
07:09AM 40.8500 -73.7000 32° Northeast 284 327 9,000 2,820 Climbing New York TRACON
07:10AM 40.9794 -73.5947 22° Northeast 314 361 13,300 2,760 Climbing Boston Center
07:11AM 41.0778 -73.5414 24° Northeast 339 390 16,800 2,820 Climbing Boston Center
07:12AM 41.1597 -73.4933 22° Northeast 351 404 19,000 1,800 Climbing Boston Center
07:13AM 41.2581 -73.4397 21° North 362 417 20,500 1,740 Climbing Boston Center
07:14AM 41.3628 -73.3858 360° North 380 437 22,500 1,860 Climbing Boston Center
07:15AM 41.4753 -73.3850 358° North 393 452 24,300 1,920 Climbing Boston Center
07:16AM 41.6022 -73.3922 358° North 400 460 26,400 1,800 Climbing Boston Center
07:17AM 41.7211 -73.3969 357° North 411 473 27,900 1,260 Climbing Boston Center
07:18AM 41.8419 -73.4042 358° North 422 486 29,000 540 Climbing Boston Center
07:19AM 41.9606 -73.4089 359° North 422 486 29,000  Level Boston Center
07:20AM 42.0753 -73.4106 359° North 436 502 29,000  Level Boston Center
07:21AM 42.1983 -73.4125 359° North 436 502 29,000  Level Boston Center
07:22AM 42.3192 -73.4144 354° North 436 502 29,000  Level Boston Center
07:23AM 42.4397 -73.4303 358° North 436 502 29,000  Level Boston Center
07:24AM 42.5608 -73.4350 358° North 442 509 29,000  Level Boston Center
07:25AM 42.6858 -73.4400 358° North 442 509 29,000  Level Boston Center
07:26AM 42.8108 -73.4447 359° North 442 509 29,000  Level Boston Center
07:27AM 42.9483 -73.4469 358° North 441 507 29,000  Level Boston Center
07:28AM 43.0711 -73.4519 358° North 441 507 29,000  Level Boston Center
07:29AM 43.1817 -73.4567 358° North 436 502 29,000  Level Boston Center
07:30AM 43.3044 -73.4614 358° North 436 502 29,000  Level Boston Center
07:31AM 43.4233 -73.4664 358° North 436 502 29,000  Level Boston Center
07:32AM 43.5461 -73.4714 358° North 436 502 29,000  Level Boston Center
07:33AM 43.6856 -73.4794 357° North 441 507 29,000  Level Boston Center
07:34AM 43.8086 -73.4872 359° North 441 507 29,000  Level Boston Center
07:35AM 43.9272 -73.4894 358° North 441 507 29,000  Level Boston Center
07:36AM 44.0378 -73.4942 358° North 441 507 29,000  Level Boston Center
07:37AM 44.1606 -73.4992 358° North 441 507 29,000 -360 Level Boston Center
07:38AM 44.2794 -73.5042 358° North 436 502 28,300 -1,380 Descending Boston Center
07:39AM 44.4022 -73.5094 357° North 436 502 26,300 -2,400 Descending Boston Center
07:40AM 44.5292 -73.5175 358° North 425 489 23,500 -2,760 Descending Boston Center
07:41AM 44.6417 -73.5225 351° North 414 476 20,800 -2,640 Descending Boston Center
07:42AM 44.7456 -73.5447 349° North 393 452 18,300 -2,460 Descending Boston Center
07:43AM 44.8475 -73.5731 349° North 377 434 15,900 -2,520 Descending Boston Center
07:44AM 44.8833 -73.5833 353° North 360 414 14,600 -2,520 Descending Montreal Center
07:45AM 44.9833 -73.6000 353° North 350 403 12,200 -2,100 Descending Montreal Center
07:46AM 45.0833 -73.6167 360° North 340 391 10,400 -1,500 Descending Montreal Center
07:47AM 45.1500 -73.6167 352° North 310 357 9,200 -1,260 Descending Montreal Center
07:48AM 45.2333 -73.6333 23° Northeast 290 334 7,900 -1,200 Descending Montreal Center
07:49AM 45.3167 -73.5833 28° Northeast 290 334 6,800 -1,200 Descending Montreal Center
07:50AM 45.3833 -73.5333 23° Northeast 290 334 5,600 -1,140 Descending Montreal Center
07:51AM 45.4667 -73.4833 19° North 290 334 4,600 -900 Descending Montreal Center
07:52AM 45.5333 -73.4500 314° West 260 299 3,900 -840 Descending Montreal Center
07:53AM 45.5667 -73.5000 295° West 220 253 3,000 -480 Descending Montreal Center
07:54AM 45.5833 -73.5500 234° Southwest 190 219 3,000 -420 Level Montreal Center
07:55AM 45.5500 -73.6167 226° Southwest 180 207 2,200 -840 Descending Montreal Center
07:56AM 45.5167 -73.6667 215° Southwest 170 196 1,400 -780 Descending Montreal Center
07:57AM 45.4833 -73.7000 215° Southwest 130 150 700 -720 Descending Montreal Center